CWYO2: Chewey Road

                                SHEF ID:       CWYO2     Illinois River at Chewey, OK
STATION TYPE:
Regulating: Stage = 12.00, Flow = 13730

PRECIP STAGE STAGE(2) RIV-FLOW BAT-LOAD
in ft ft cfs volt
Ccp-Rev Ccp-Rev Ccp-Rev Ccp-Rev Ccp-Rev
(America/Chicago)
08/30 00:00 0.00 5.49 5.45 2259 11.94
08/30 01:00 0.00 5.42 5.38 2191 11.94
08/30 02:00 0.00 5.35 5.32 2124 11.93
08/30 03:00 0.00 5.28 5.25 2059 11.93
08/30 04:00 0.00 5.22 5.20 2003 11.91
08/30 05:00 0.00 5.16 5.14 1949 11.91
08/30 06:00 0.00 5.11 5.09 1904 11.92
08/30 07:00 0.00 5.06 5.03 1860 11.91
08/30 08:00 0.00 5.02 5.00 1825 11.93
08/30 09:00 0.00 4.97 4.94 1780 11.96
08/30 10:00 0.00 4.93 4.92 1744 12.14
08/30 11:00 0.00 4.90 4.87 1717 12.34
08/30 12:00 0.00 4.86 4.84 1680 12.22
08/30 13:00 0.00 4.82 4.80 1644 12.24
08/30 14:00 0.00 4.78 4.76 1608 12.17
08/30 15:00 0.00 4.73 4.71 1564 12.20
08/30 16:00 0.00 4.67 4.65 1510 12.17
08/30 17:00 0.00 4.63 4.61 1475 12.13
08/30 18:00 0.00 4.59 4.58 1440 12.11
08/30 19:00 0.00 4.56 4.56 1414 12.08
08/30 20:00 0.00 4.55 4.53 1405 12.04
08/30 21:00 0.00 4.53 4.52 1388 12.03
08/30 22:00 0.00 4.52 4.51 1380 12.01
08/30 23:00 0.00 4.50 4.49 1362 12.00
Data processed at Sun 31Aug2025 04:29 GMT

Parsing this webpage?

Checkout our new Data API! CWMSDataAPI (CDA)

Timeseries IDs (TSIDs)

TSIDs used from left to right in the data table
CHEW.Precip-Inc.Total.1Hour.1Hour.Ccp-Rev
CHEW.Stage.Inst.1Hour.0.Ccp-Rev
CHEW.Stage-Alt.Inst.1Hour.0.Ccp-Rev
CHEW.Flow.Inst.1Hour.0.Ccp-Rev
CHEW.Volt-Battery Load.Inst.1Hour.0.Ccp-Rev

                            

All information presented herein is the property of the government of the United States of America and may be revised or deleted at any time without prior notice. Dissemination of this information without the expressed written consent of the Public Affairs Office, Tulsa District U.S. Army Corps of Engineers is strictly prohibited. These data are gathered electronically and, as presented, have NOT undergone any form of quality control. These data are NOT guaranteed to be valid or correct.